Time;durP1;ratioP1;P1;durP2;ratioP2;P2;SDS_P1;SDS_P2;PMS_P1;PMS_P2;Temp;Humidity;BMP_temperature;BMP_pressure;BME280_temperature;BME280_humidity;BME280_pressure;Samples;Min_cycle;Max_cycle;Signal;HPM_P1;HPM_P2
2024/02/28 00:01:50;;;;;;;30.37;15.90;;;6.30;99.90;;;;;;4936570;28;20498;-74
2024/02/28 00:04:16;;;;;;;31.73;16.33;;;6.30;99.90;;;;;;4952033;28;20248;-74
2024/02/28 00:06:42;;;;;;;30.60;16.77;;;6.30;99.90;;;;;;4923530;28;20549;-73
2024/02/28 00:09:08;;;;;;;34.17;17.40;;;6.30;99.90;;;;;;4935904;28;20223;-73
2024/02/28 00:11:33;;;;;;;28.00;15.93;;;6.20;99.90;;;;;;4922835;28;20222;-74
2024/02/28 00:14:02;;;;;;;31.57;16.97;;;6.20;99.90;;;;;;4942220;28;20216;-75
2024/02/28 00:16:28;;;;;;;31.77;15.53;;;6.10;99.90;;;;;;4917818;28;20299;-74
2024/02/28 00:18:54;;;;;;;37.70;16.90;;;6.10;99.90;;;;;;4900605;28;20585;-73
2024/02/28 00:21:19;;;;;;;32.10;16.07;;;6.10;99.90;;;;;;4910568;28;20775;-74
2024/02/28 00:23:48;;;;;;;36.87;19.37;;;6.20;99.90;;;;;;4911529;29;20496;-73
2024/02/28 00:26:14;;;;;;;37.50;15.97;;;6.20;99.90;;;;;;4912330;28;20238;-74
2024/02/28 00:28:42;;;;;;;32.80;17.13;;;6.20;99.90;;;;;;4921761;28;20464;-74
2024/02/28 00:31:08;;;;;;;33.90;15.90;;;6.20;99.90;;;;;;4933968;28;20251;-72
2024/02/28 00:33:34;;;;;;;35.93;18.00;;;6.10;99.90;;;;;;4932789;28;21004;-74
2024/02/28 00:35:59;;;;;;;35.53;17.80;;;6.10;99.90;;;;;;4937402;28;20243;-74
2024/02/28 00:38:25;;;;;;;35.50;18.37;;;6.10;99.90;;;;;;4898125;29;20264;-74
2024/02/28 00:40:50;;;;;;;39.03;17.60;;;6.10;99.90;;;;;;4926428;28;20260;-74
2024/02/28 00:43:16;;;;;;;27.07;14.73;;;6.10;99.90;;;;;;4931498;28;20227;-75
2024/02/28 00:45:43;;;;;;;27.77;15.70;;;6.00;99.90;;;;;;4938446;28;20219;-74
2024/02/28 00:48:09;;;;;;;31.87;15.23;;;6.00;99.90;;;;;;4930615;28;20226;-74
2024/02/28 00:50:34;;;;;;;31.43;16.40;;;5.90;99.90;;;;;;4935831;28;20472;-74
2024/02/28 00:53:00;;;;;;;31.13;16.63;;;5.90;99.90;;;;;;4933557;28;20249;-74
2024/02/28 00:55:25;;;;;;;39.90;18.57;;;5.80;99.90;;;;;;4940974;28;20250;-74
2024/02/28 00:57:51;;;;;;;34.37;16.17;;;5.90;99.90;;;;;;4944625;28;20320;-74
2024/02/28 01:00:17;;;;;;;35.37;17.60;;;5.80;99.90;;;;;;4957917;28;20276;-74
2024/02/28 01:02:43;;;;;;;35.27;16.13;;;5.80;99.90;;;;;;4971780;28;20231;-74
2024/02/28 01:05:08;;;;;;;31.60;16.00;;;5.80;99.90;;;;;;4954577;28;20470;-74
2024/02/28 01:07:34;;;;;;;37.87;16.30;;;5.80;99.90;;;;;;4953526;28;20250;-75
2024/02/28 01:09:59;;;;;;;31.40;15.50;;;5.80;99.90;;;;;;4931555;28;20248;-74
2024/02/28 01:12:25;;;;;;;35.37;17.20;;;5.80;99.90;;;;;;4940990;28;20244;-75
2024/02/28 01:14:51;;;;;;;29.50;15.57;;;5.80;99.90;;;;;;4944176;28;20279;-74
2024/02/28 01:17:16;;;;;;;38.50;16.03;;;5.80;99.90;;;;;;4940878;28;20232;-73
2024/02/28 01:19:42;;;;;;;34.10;16.27;;;5.80;99.90;;;;;;4944488;28;20231;-75
2024/02/28 01:22:08;;;;;;;35.97;16.17;;;5.80;99.90;;;;;;4926654;28;20254;-74
2024/02/28 01:24:34;;;;;;;35.03;16.10;;;5.80;99.90;;;;;;4940200;28;20228;-74
2024/02/28 01:27:00;;;;;;;30.87;15.20;;;5.70;99.90;;;;;;4943978;28;20472;-74
2024/02/28 01:29:26;;;;;;;39.27;17.10;;;5.70;99.90;;;;;;4939558;28;20618;-74
2024/02/28 01:31:51;;;;;;;37.73;16.40;;;5.70;99.90;;;;;;4942439;28;20226;-74
2024/02/28 01:34:18;;;;;;;38.60;15.80;;;5.70;99.90;;;;;;4939068;28;20632;-75
2024/02/28 01:36:44;;;;;;;31.57;16.83;;;5.60;99.90;;;;;;4946706;28;20211;-73
2024/02/28 01:39:09;;;;;;;36.83;15.93;;;5.60;99.90;;;;;;4952694;28;20897;-74
2024/02/28 01:41:35;;;;;;;36.90;16.30;;;5.60;99.90;;;;;;4944071;28;20231;-74
2024/02/28 01:44:00;;;;;;;37.80;16.80;;;5.50;99.90;;;;;;4943603;28;20227;-74
2024/02/28 01:46:27;;;;;;;41.70;17.47;;;5.50;99.90;;;;;;4925767;28;20219;-74
2024/02/28 01:48:54;;;;;;;31.43;17.03;;;5.50;99.90;;;;;;4944146;28;20223;-74
2024/02/28 01:51:23;;;;;;;34.73;16.53;;;5.60;99.90;;;;;;4928159;28;20479;-74
2024/02/28 01:53:51;;;;;;;33.40;16.03;;;5.60;99.90;;;;;;4944954;28;20538;-74
2024/02/28 01:56:17;;;;;;;29.63;15.07;;;5.60;99.90;;;;;;4942106;28;20517;-74
2024/02/28 01:58:47;;;;;;;42.77;18.40;;;5.60;99.90;;;;;;4941332;28;20569;-74
2024/02/28 02:01:17;;;;;;;36.33;17.10;;;5.60;99.90;;;;;;4944704;28;20503;-74
2024/02/28 02:03:48;;;;;;;32.90;14.80;;;5.60;99.90;;;;;;4959226;28;20466;-73
2024/02/28 02:06:14;;;;;;;36.70;16.77;;;5.50;99.90;;;;;;4922106;28;21039;-74
2024/02/28 02:08:41;;;;;;;31.43;14.60;;;5.50;99.90;;;;;;4926890;28;20282;-74
2024/02/28 02:11:06;;;;;;;32.93;16.70;;;5.50;99.90;;;;;;4938506;28;20251;-74
2024/02/28 02:13:32;;;;;;;34.20;17.60;;;5.50;99.90;;;;;;4938892;28;20569;-74
2024/02/28 02:15:58;;;;;;;33.90;16.67;;;5.50;99.90;;;;;;4946380;28;20587;-74
2024/02/28 02:18:23;;;;;;;30.90;15.90;;;5.50;99.90;;;;;;4942061;28;20231;-74
2024/02/28 02:21:03;;;;;;;32.07;14.87;;;5.60;99.90;;;;;;4947707;28;20305;-73
2024/02/28 02:23:30;;;;;;;25.60;14.50;;;5.60;99.90;;;;;;4963095;28;20273;-75
2024/02/28 02:25:55;;;;;;;35.63;16.63;;;5.70;99.90;;;;;;4964072;28;20466;-74
2024/02/28 02:28:21;;;;;;;35.83;17.00;;;5.70;99.90;;;;;;4955872;28;20887;-74
2024/02/28 02:30:47;;;;;;;32.23;14.90;;;5.70;99.90;;;;;;4975331;28;20253;-74
2024/02/28 02:33:13;;;;;;;32.40;16.83;;;5.80;99.90;;;;;;4956583;28;20222;-73
2024/02/28 02:35:38;;;;;;;33.60;14.60;;;5.80;99.90;;;;;;4964240;28;20509;-74
2024/02/28 02:38:04;;;;;;;35.03;15.40;;;5.70;99.90;;;;;;4957498;28;20234;-74
2024/02/28 02:40:29;;;;;;;31.50;15.97;;;5.80;99.90;;;;;;4962806;28;20234;-74
2024/02/28 02:42:55;;;;;;;36.57;17.23;;;5.70;99.90;;;;;;4962284;28;20219;-74
2024/02/28 02:45:21;;;;;;;26.07;14.67;;;5.70;99.90;;;;;;4961742;28;20241;-74
2024/02/28 02:47:46;;;;;;;25.57;13.90;;;5.70;99.90;;;;;;4965276;28;20223;-74
2024/02/28 02:50:12;;;;;;;33.93;15.20;;;5.80;99.90;;;;;;4960085;28;20226;-74
2024/02/28 02:52:38;;;;;;;38.13;16.90;;;5.80;99.90;;;;;;4965141;28;20326;-75
2024/02/28 02:55:04;;;;;;;33.73;15.47;;;5.80;99.90;;;;;;4960590;28;20218;-73
2024/02/28 02:57:31;;;;;;;37.23;16.00;;;5.80;99.90;;;;;;4963501;28;20234;-74
2024/02/28 02:59:57;;;;;;;35.30;16.17;;;5.80;99.90;;;;;;4965622;28;20506;-74
2024/02/28 03:02:23;;;;;;;34.00;16.47;;;5.80;99.90;;;;;;4961625;28;20474;-74
2024/02/28 03:04:48;;;;;;;28.90;14.73;;;5.70;99.90;;;;;;4962852;28;20790;-73
2024/02/28 03:07:14;;;;;;;37.10;16.73;;;5.70;99.90;;;;;;4958142;28;20231;-74
2024/02/28 03:09:40;;;;;;;30.97;14.87;;;5.80;99.90;;;;;;4960651;28;20302;-74
2024/02/28 03:12:06;;;;;;;37.13;18.00;;;5.70;99.90;;;;;;4963010;28;20226;-74
2024/02/28 03:14:32;;;;;;;23.93;13.63;;;5.60;99.90;;;;;;4958905;28;20665;-73
2024/02/28 03:16:58;;;;;;;38.90;14.97;;;5.40;99.90;;;;;;4971992;28;20469;-73
2024/02/28 03:19:23;;;;;;;34.77;15.03;;;5.50;99.90;;;;;;4956409;28;20244;-73
2024/02/28 03:21:49;;;;;;;32.63;15.43;;;5.40;99.90;;;;;;4957577;28;20325;-73
2024/02/28 03:24:15;;;;;;;28.77;13.87;;;5.40;99.90;;;;;;4939438;28;20269;-73
2024/02/28 03:26:42;;;;;;;33.67;15.50;;;5.30;99.90;;;;;;4962108;28;20246;-73
2024/02/28 03:29:07;;;;;;;37.00;16.53;;;5.20;99.90;;;;;;4953948;28;20227;-73
2024/02/28 03:31:33;;;;;;;28.40;13.43;;;5.20;99.90;;;;;;4961706;28;20473;-73
2024/02/28 03:33:59;;;;;;;29.63;15.73;;;5.30;99.90;;;;;;4961767;28;20258;-74
2024/02/28 03:36:25;;;;;;;24.97;13.50;;;5.50;99.90;;;;;;4957050;28;20301;-73
2024/02/28 03:38:50;;;;;;;37.30;15.90;;;5.50;99.90;;;;;;4961481;28;20238;-73
2024/02/28 03:41:16;;;;;;;31.37;15.60;;;5.60;99.90;;;;;;4955054;28;20227;-73
2024/02/28 03:43:42;;;;;;;30.13;14.33;;;5.60;99.90;;;;;;4964322;28;20253;-73
2024/02/28 03:46:07;;;;;;;31.97;14.80;;;5.60;99.90;;;;;;4956202;28;20246;-73
2024/02/28 03:48:33;;;;;;;35.27;16.37;;;5.60;99.90;;;;;;4954754;28;20813;-73
2024/02/28 03:50:59;;;;;;;31.60;14.80;;;5.50;99.90;;;;;;4958588;28;20479;-74
2024/02/28 03:53:24;;;;;;;29.27;14.73;;;5.60;99.90;;;;;;4942409;28;20230;-73
2024/02/28 03:55:50;;;;;;;33.87;15.00;;;5.50;99.90;;;;;;4976046;28;20236;-73
2024/02/28 03:58:16;;;;;;;31.10;15.30;;;5.60;99.90;;;;;;4937708;28;20318;-73
2024/02/28 04:00:44;;;;;;;33.07;14.07;;;5.50;99.90;;;;;;4960620;28;20276;-73
2024/02/28 04:03:10;;;;;;;30.70;14.23;;;5.50;99.90;;;;;;4960050;28;20601;-73
2024/02/28 04:05:35;;;;;;;27.07;13.30;;;5.50;99.90;;;;;;4961480;28;20466;-75
2024/02/28 04:08:01;;;;;;;29.43;13.60;;;5.50;99.90;;;;;;4963543;28;20222;-73
2024/02/28 04:10:27;;;;;;;31.60;15.40;;;5.40;99.90;;;;;;4956962;28;20282;-73
2024/02/28 04:12:52;;;;;;;27.03;13.93;;;5.40;99.90;;;;;;4947859;28;20223;-73
2024/02/28 04:15:18;;;;;;;31.20;14.20;;;5.30;99.90;;;;;;4957350;28;20218;-74
2024/02/28 04:17:44;;;;;;;35.87;14.60;;;5.30;99.90;;;;;;4960398;28;20262;-74
2024/02/28 04:20:10;;;;;;;34.03;14.93;;;5.30;99.90;;;;;;4954894;28;20291;-73
2024/02/28 04:22:36;;;;;;;29.70;14.47;;;5.40;99.90;;;;;;4959945;28;20309;-73
2024/02/28 04:25:01;;;;;;;29.30;13.50;;;5.40;99.90;;;;;;4942138;28;20530;-74
2024/02/28 04:27:27;;;;;;;28.33;14.60;;;5.30;99.90;;;;;;4956678;28;20246;-72
2024/02/28 04:29:52;;;;;;;29.57;12.77;;;5.30;99.90;;;;;;4963896;28;20289;-73
2024/02/28 04:32:18;;;;;;;30.23;13.97;;;5.20;99.90;;;;;;4958761;28;20630;-74
2024/02/28 04:34:44;;;;;;;27.30;12.73;;;5.20;99.90;;;;;;4963946;28;20254;-73
2024/02/28 04:37:09;;;;;;;31.43;13.70;;;5.10;99.90;;;;;;4956800;28;20228;-73
2024/02/28 04:39:35;;;;;;;23.77;12.17;;;5.20;99.90;;;;;;4959997;28;20703;-72
2024/02/28 04:42:01;;;;;;;30.47;12.97;;;5.20;99.90;;;;;;4967116;28;20222;-74
2024/02/28 04:44:26;;;;;;;30.83;13.77;;;5.20;99.90;;;;;;4957773;28;20222;-73
2024/02/28 04:46:52;;;;;;;25.43;13.07;;;5.20;99.90;;;;;;4964966;28;20250;-72
2024/02/28 04:49:18;;;;;;;36.23;13.60;;;5.10;99.90;;;;;;4956912;28;20221;-74
2024/02/28 04:51:43;;;;;;;25.93;12.70;;;5.10;99.90;;;;;;4966570;28;20211;-73
2024/02/28 04:54:09;;;;;;;26.83;13.00;;;5.10;99.90;;;;;;4957977;28;20229;-73
2024/02/28 04:56:40;;;;;;;24.27;12.13;;;5.10;99.90;;;;;;4949552;28;20214;-73
2024/02/28 04:59:06;;;;;;;28.90;13.27;;;5.20;99.90;;;;;;4967693;28;20231;-74
2024/02/28 05:01:32;;;;;;;28.17;11.90;;;5.20;99.90;;;;;;4955013;28;20463;-73
2024/02/28 05:03:57;;;;;;;31.80;15.00;;;5.20;99.90;;;;;;4972007;28;20221;-73
2024/02/28 05:06:23;;;;;;;32.93;13.40;;;5.20;99.90;;;;;;4958238;28;20439;-73
2024/02/28 05:08:49;;;;;;;34.63;14.50;;;5.20;99.90;;;;;;4965455;28;20218;-75
2024/02/28 05:11:15;;;;;;;28.67;12.80;;;5.20;99.90;;;;;;4968327;28;20227;-73
2024/02/28 05:13:40;;;;;;;26.33;12.60;;;5.20;99.90;;;;;;4964162;28;20210;-74
2024/02/28 05:16:13;;;;;;;34.80;15.57;;;5.20;99.90;;;;;;4983745;28;20216;-75
2024/02/28 05:18:38;;;;;;;27.10;12.13;;;5.20;99.90;;;;;;4966759;28;20289;-74
2024/02/28 05:21:04;;;;;;;25.43;12.33;;;5.10;99.90;;;;;;4966164;28;20470;-74
2024/02/28 05:23:30;;;;;;;27.60;12.70;;;5.20;99.90;;;;;;4957740;28;20219;-75
2024/02/28 05:25:57;;;;;;;31.47;13.27;;;5.10;99.90;;;;;;4957508;28;20219;-74
2024/02/28 05:28:23;;;;;;;26.17;12.70;;;5.10;99.90;;;;;;4959236;28;20464;-73
2024/02/28 05:30:49;;;;;;;37.97;15.20;;;5.10;99.90;;;;;;4962116;28;20474;-72
2024/02/28 05:33:15;;;;;;;26.80;13.13;;;5.10;99.90;;;;;;4957989;28;20474;-73
2024/02/28 05:35:40;;;;;;;34.90;15.43;;;5.20;99.90;;;;;;4966387;28;20466;-73
2024/02/28 05:38:06;;;;;;;32.53;13.77;;;5.20;99.90;;;;;;4957859;28;20265;-73
2024/02/28 05:40:32;;;;;;;30.67;13.73;;;5.20;99.90;;;;;;4976543;28;20226;-74
2024/02/28 05:42:57;;;;;;;31.17;15.80;;;5.10;99.90;;;;;;4962138;28;20211;-74
2024/02/28 05:45:23;;;;;;;25.90;13.60;;;5.00;99.90;;;;;;4978942;28;20239;-73
2024/02/28 05:47:49;;;;;;;33.57;14.73;;;5.00;99.90;;;;;;4974729;28;20235;-73
2024/02/28 05:50:15;;;;;;;31.33;14.47;;;5.00;99.90;;;;;;4958608;28;20234;-73
2024/02/28 05:52:43;;;;;;;34.63;15.67;;;5.00;99.90;;;;;;4962504;28;20219;-73
2024/02/28 05:55:09;;;;;;;27.90;14.00;;;5.00;99.90;;;;;;4957983;28;20469;-73
2024/02/28 05:57:35;;;;;;;26.90;12.53;;;5.00;99.90;;;;;;4974748;28;20482;-73
2024/02/28 06:00:04;;;;;;;24.37;12.63;;;5.00;99.90;;;;;;4973580;28;20310;-73
2024/02/28 06:02:37;;;;;;;33.63;13.57;;;5.10;99.90;;;;;;4966445;28;20229;-73
2024/02/28 06:05:03;;;;;;;33.47;13.10;;;5.00;99.90;;;;;;4975415;28;20524;-73
2024/02/28 06:07:29;;;;;;;26.90;13.80;;;5.00;99.90;;;;;;4961671;28;20466;-74
2024/02/28 06:09:55;;;;;;;30.43;13.97;;;5.10;99.90;;;;;;4961090;28;20965;-73
2024/02/28 06:12:20;;;;;;;29.67;13.47;;;5.10;99.90;;;;;;4944994;28;20247;-73
2024/02/28 06:14:46;;;;;;;28.87;12.00;;;5.00;99.90;;;;;;4962932;28;20226;-74
2024/02/28 06:17:12;;;;;;;33.20;13.63;;;4.90;99.90;;;;;;4958182;28;20928;-73
2024/02/28 06:19:37;;;;;;;28.27;13.10;;;5.00;99.90;;;;;;4962955;28;20215;-73
2024/02/28 06:22:03;;;;;;;35.87;14.20;;;5.00;99.90;;;;;;4960971;28;20255;-74
2024/02/28 06:24:29;;;;;;;28.97;13.70;;;5.00;99.90;;;;;;4962498;28;20297;-73
2024/02/28 06:26:55;;;;;;;26.77;13.70;;;5.00;99.90;;;;;;4966032;28;20298;-72
2024/02/28 06:29:22;;;;;;;34.50;13.53;;;4.90;99.90;;;;;;4957012;28;20217;-73
2024/02/28 06:31:51;;;;;;;26.93;12.67;;;4.90;99.90;;;;;;4960424;28;20470;-74
2024/02/28 06:34:18;;;;;;;32.83;14.20;;;4.90;99.90;;;;;;4957372;28;20465;-73
2024/02/28 06:36:44;;;;;;;28.47;13.93;;;4.90;99.90;;;;;;4960467;28;21189;-73
2024/02/28 06:39:09;;;;;;;30.30;12.77;;;4.90;99.90;;;;;;4971753;28;20485;-74
2024/02/28 06:41:35;;;;;;;33.87;15.57;;;4.80;99.90;;;;;;4958128;28;20226;-73
2024/02/28 06:44:01;;;;;;;32.40;14.80;;;4.70;99.90;;;;;;4955320;28;20697;-73
2024/02/28 06:46:26;;;;;;;27.93;14.63;;;4.70;99.90;;;;;;4954315;28;20235;-74
2024/02/28 06:48:52;;;;;;;32.20;14.00;;;4.80;99.90;;;;;;4960660;28;20237;-73
2024/02/28 06:51:17;;;;;;;22.93;12.33;;;4.90;99.90;;;;;;4957778;28;20227;-73
2024/02/28 06:53:43;;;;;;;31.57;13.33;;;4.90;99.90;;;;;;4963562;28;20214;-73
2024/02/28 06:56:09;;;;;;;25.30;12.60;;;4.90;99.90;;;;;;4959751;28;20657;-73
2024/02/28 06:58:35;;;;;;;27.90;12.10;;;4.90;99.90;;;;;;4948633;28;20234;-74
2024/02/28 07:01:01;;;;;;;33.23;14.00;;;4.90;99.90;;;;;;4974235;28;20553;-73
2024/02/28 07:03:26;;;;;;;29.90;12.10;;;4.90;99.90;;;;;;4958514;28;20235;-73
2024/02/28 07:05:53;;;;;;;30.63;13.20;;;4.90;99.90;;;;;;4963696;28;20211;-74
2024/02/28 07:08:20;;;;;;;31.63;16.20;;;4.90;99.90;;;;;;4961588;28;20215;-73
2024/02/28 07:10:49;;;;;;;31.53;13.83;;;4.80;99.90;;;;;;4962329;28;20546;-74
2024/02/28 07:13:15;;;;;;;29.53;12.97;;;4.90;99.90;;;;;;4953965;28;20517;-73
2024/02/28 07:15:41;;;;;;;34.77;13.77;;;4.90;99.90;;;;;;4945717;28;21062;-74
2024/02/28 07:18:07;;;;;;;32.10;13.87;;;5.00;99.90;;;;;;4954950;28;20541;-74
2024/02/28 07:20:33;;;;;;;30.27;12.20;;;5.00;99.90;;;;;;4953646;28;20569;-74
2024/02/28 07:22:59;;;;;;;23.33;11.73;;;5.00;99.90;;;;;;4957452;28;20553;-74
2024/02/28 07:25:24;;;;;;;30.57;13.77;;;5.00;99.90;;;;;;4954184;28;20311;-73
2024/02/28 07:27:50;;;;;;;30.23;13.70;;;5.10;99.90;;;;;;4959340;28;20222;-73
2024/02/28 07:30:16;;;;;;;25.00;11.57;;;5.10;99.90;;;;;;4954092;28;20234;-73
2024/02/28 07:32:41;;;;;;;27.63;13.70;;;5.10;99.90;;;;;;4944993;28;20223;-74
2024/02/28 07:35:07;;;;;;;35.40;13.27;;;5.10;99.90;;;;;;4941202;28;20214;-74
2024/02/28 07:37:33;;;;;;;27.97;11.57;;;5.10;99.90;;;;;;4956213;28;20708;-74
2024/02/28 07:39:59;;;;;;;25.40;11.23;;;5.20;99.90;;;;;;4957393;28;20473;-73
2024/02/28 07:42:25;;;;;;;31.93;13.60;;;5.20;99.90;;;;;;4951763;28;20216;-73
2024/02/28 07:44:56;;;;;;;32.90;15.07;;;5.10;99.90;;;;;;4957140;28;20529;-72
2024/02/28 07:47:22;;;;;;;28.93;14.00;;;5.20;99.90;;;;;;4950066;28;20458;-73
2024/02/28 07:49:48;;;;;;;27.93;13.30;;;5.10;99.90;;;;;;4956432;28;20462;-73
2024/02/28 07:52:13;;;;;;;31.77;13.87;;;5.20;99.90;;;;;;4953808;28;20463;-73
2024/02/28 07:54:43;;;;;;;32.70;13.43;;;5.20;99.90;;;;;;4959197;28;20301;-73
2024/02/28 07:57:09;;;;;;;31.07;13.80;;;5.10;99.90;;;;;;4955764;28;20225;-74
2024/02/28 07:59:43;;;;;;;30.70;13.97;;;5.20;99.90;;;;;;4962038;28;20469;-73
2024/02/28 08:02:11;;;;;;;31.37;12.37;;;5.20;99.90;;;;;;4952615;28;20485;-73
2024/02/28 08:04:37;;;;;;;29.37;12.57;;;5.20;99.90;;;;;;4958995;28;20462;-74
2024/02/28 08:07:03;;;;;;;31.73;13.40;;;5.20;99.90;;;;;;4957524;28;20471;-74
2024/02/28 08:09:29;;;;;;;30.90;14.20;;;5.20;99.90;;;;;;4963910;28;20766;-73
2024/02/28 08:11:54;;;;;;;32.20;14.70;;;5.30;99.90;;;;;;4944575;28;20474;-73
2024/02/28 08:14:21;;;;;;;35.10;14.07;;;5.40;99.90;;;;;;4953625;28;20310;-73
2024/02/28 08:16:46;;;;;;;29.23;14.53;;;5.40;99.90;;;;;;4959738;28;20226;-74
2024/02/28 08:19:12;;;;;;;39.20;14.27;;;5.40;99.90;;;;;;4952804;28;20903;-73
2024/02/28 08:21:38;;;;;;;32.70;14.83;;;5.40;99.90;;;;;;4960224;28;20222;-73
2024/02/28 08:24:04;;;;;;;31.37;14.57;;;5.40;99.90;;;;;;4962093;28;20214;-73
2024/02/28 08:26:31;;;;;;;31.90;13.47;;;5.50;99.90;;;;;;4955052;28;20210;-73
2024/02/28 08:28:56;;;;;;;36.40;15.70;;;5.50;99.90;;;;;;4971365;28;20461;-74
2024/02/28 08:31:22;;;;;;;37.27;17.57;;;5.60;99.90;;;;;;4959928;28;20532;-74
2024/02/28 08:33:48;;;;;;;32.40;15.37;;;5.60;99.90;;;;;;4963116;28;20227;-74
2024/02/28 08:36:15;;;;;;;37.50;17.03;;;5.70;99.90;;;;;;4958486;28;20223;-74
2024/02/28 08:38:41;;;;;;;30.03;13.97;;;5.70;99.90;;;;;;4956568;28;20234;-73
2024/02/28 08:41:07;;;;;;;37.50;14.80;;;5.70;99.90;;;;;;4957502;28;20475;-73
2024/02/28 08:43:40;;;;;;;32.67;13.47;;;5.70;99.90;;;;;;4958177;28;20227;-74
2024/02/28 08:46:06;;;;;;;31.40;13.30;;;5.80;99.90;;;;;;4960021;28;20477;-73
2024/02/28 08:48:32;;;;;;;29.77;14.90;;;5.80;99.90;;;;;;4957154;28;20525;-74
2024/02/28 08:50:58;;;;;;;32.17;14.17;;;5.90;99.90;;;;;;4957600;28;20259;-74
2024/02/28 08:53:23;;;;;;;26.40;14.03;;;6.00;99.90;;;;;;4956524;28;20481;-73
2024/02/28 08:55:49;;;;;;;30.23;14.87;;;6.00;99.90;;;;;;4963241;28;20223;-74
2024/02/28 08:58:15;;;;;;;37.30;13.80;;;6.10;99.90;;;;;;4955919;28;20251;-74
2024/02/28 09:00:41;;;;;;;23.90;11.80;;;6.20;99.90;;;;;;4967495;28;20628;-73
2024/02/28 09:03:06;;;;;;;28.20;11.53;;;6.10;99.90;;;;;;4965344;28;20214;-73
2024/02/28 09:05:32;;;;;;;31.20;13.83;;;6.10;99.90;;;;;;4968952;28;20302;-74
2024/02/28 09:07:57;;;;;;;25.70;11.77;;;6.20;99.90;;;;;;4985085;28;20230;-72
2024/02/28 09:10:24;;;;;;;27.83;12.20;;;6.30;99.90;;;;;;4965455;28;20311;-73
2024/02/28 09:12:52;;;;;;;27.80;12.73;;;6.20;99.90;;;;;;4968219;28;20218;-72
2024/02/28 09:15:18;;;;;;;25.80;13.47;;;6.20;99.90;;;;;;4965035;28;20483;-74
2024/02/28 09:17:44;;;;;;;22.80;11.33;;;6.20;99.90;;;;;;4966734;28;20875;-73
2024/02/28 09:20:10;;;;;;;24.33;12.50;;;6.30;99.90;;;;;;4966445;28;20523;-74
2024/02/28 09:22:37;;;;;;;28.20;12.47;;;6.40;99.90;;;;;;4967049;28;20222;-73
2024/02/28 09:25:04;;;;;;;25.93;12.93;;;6.40;99.90;;;;;;4964760;28;20465;-73
2024/02/28 09:27:30;;;;;;;29.67;12.80;;;6.50;99.90;;;;;;4951295;28;20515;-73
2024/02/28 09:29:56;;;;;;;26.50;11.90;;;6.60;99.90;;;;;;4948681;28;20451;-73
2024/02/28 09:32:21;;;;;;;24.67;12.00;;;6.70;99.90;;;;;;4968537;28;20495;-73
2024/02/28 09:34:47;;;;;;;31.57;12.87;;;6.90;99.90;;;;;;4964740;28;20211;-74
2024/02/28 09:37:14;;;;;;;30.20;11.57;;;7.00;99.90;;;;;;4977714;28;20767;-75
2024/02/28 09:39:40;;;;;;;24.67;12.00;;;7.10;99.90;;;;;;4965744;28;20257;-73
2024/02/28 09:42:08;;;;;;;20.80;9.83;;;7.00;99.90;;;;;;4978541;28;20593;-74
2024/02/28 09:44:36;;;;;;;24.67;10.57;;;7.10;99.90;;;;;;4949986;28;20457;-73
2024/02/28 09:47:02;;;;;;;23.33;11.07;;;7.10;99.90;;;;;;4965757;28;21027;-73
2024/02/28 09:49:30;;;;;;;25.43;10.30;;;7.20;99.90;;;;;;4963851;28;20520;-74
2024/02/28 09:51:58;;;;;;;21.80;11.10;;;7.30;99.90;;;;;;4960691;28;20627;-74
2024/02/28 09:54:23;;;;;;;22.20;10.80;;;7.30;99.90;;;;;;4965888;28;20462;-73
2024/02/28 09:56:50;;;;;;;19.37;10.00;;;7.20;99.90;;;;;;4951773;28;20479;-74
2024/02/28 09:59:18;;;;;;;21.07;11.23;;;7.20;99.90;;;;;;4964480;28;20225;-74
2024/02/28 10:01:51;;;;;;;19.70;10.87;;;7.30;99.90;;;;;;4965336;28;20572;-74
2024/02/28 10:04:17;;;;;;;25.13;11.80;;;7.40;99.90;;;;;;4966778;28;20462;-73
2024/02/28 10:06:43;;;;;;;33.73;12.90;;;7.50;99.90;;;;;;4966570;28;20831;-73
2024/02/28 10:09:10;;;;;;;23.10;11.30;;;7.60;99.90;;;;;;4962469;28;20467;-75
2024/02/28 10:11:37;;;;;;;27.63;12.30;;;7.90;99.90;;;;;;4965054;28;20222;-75
2024/02/28 10:14:03;;;;;;;29.33;12.07;;;8.10;99.90;;;;;;4967315;28;20490;-74
2024/02/28 10:16:29;;;;;;;28.13;11.40;;;8.20;99.90;;;;;;4967541;28;20458;-74
2024/02/28 10:18:55;;;;;;;26.90;12.07;;;8.40;99.90;;;;;;4961199;28;20644;-75
2024/02/28 10:21:20;;;;;;;23.13;11.40;;;8.50;99.90;;;;;;4952879;28;20508;-74
2024/02/28 10:23:46;;;;;;;23.57;11.67;;;8.70;99.90;;;;;;4953990;28;20218;-74
2024/02/28 10:26:12;;;;;;;20.43;11.10;;;8.80;99.90;;;;;;4954950;28;20720;-74
2024/02/28 10:28:39;;;;;;;22.03;11.20;;;8.70;99.90;;;;;;4955666;28;20222;-74
2024/02/28 10:31:07;;;;;;;27.27;11.77;;;8.90;99.90;;;;;;4960654;28;20949;-75
2024/02/28 10:33:33;;;;;;;26.97;11.33;;;9.20;99.90;;;;;;4952291;28;21039;-74
2024/02/28 10:35:59;;;;;;;23.03;11.77;;;9.20;99.90;;;;;;4971402;28;20494;-75
2024/02/28 10:38:27;;;;;;;25.60;12.83;;;9.00;99.90;;;;;;4954061;28;20527;-74
2024/02/28 10:40:53;;;;;;;30.83;13.00;;;8.80;99.90;;;;;;4959444;28;20462;-74
2024/02/28 10:43:20;;;;;;;23.37;11.63;;;8.60;99.90;;;;;;4953613;28;20846;-75
2024/02/28 10:45:46;;;;;;;26.17;11.10;;;8.70;99.90;;;;;;4959030;28;20477;-74
2024/02/28 10:48:15;;;;;;;21.33;11.03;;;8.80;99.90;;;;;;4952856;28;20462;-73
2024/02/28 10:50:41;;;;;;;22.57;10.97;;;9.00;99.90;;;;;;4956389;28;20492;-75
2024/02/28 10:53:14;;;;;;;22.17;11.13;;;8.80;99.90;;;;;;4960698;28;20462;-75
2024/02/28 10:55:41;;;;;;;22.33;9.70;;;8.80;99.90;;;;;;4959603;28;20492;-75
2024/02/28 10:58:10;;;;;;;27.67;12.57;;;8.90;99.90;;;;;;4958756;28;20569;-75
2024/02/28 11:00:39;;;;;;;30.50;12.30;;;9.00;99.90;;;;;;4956111;28;20458;-75
2024/02/28 11:03:08;;;;;;;22.70;10.67;;;9.10;99.90;;;;;;4957677;28;20485;-75
2024/02/28 11:05:38;;;;;;;23.13;11.20;;;9.30;99.90;;;;;;4954166;28;20466;-74
2024/02/28 11:08:24;;;;;;;31.53;12.50;;;9.40;99.90;;;;;;4956729;28;20458;-73
2024/02/28 11:10:57;;;;;;;27.20;12.97;;;9.60;99.90;;;;;;4956196;28;20457;-74
2024/02/28 11:13:27;;;;;;;24.03;11.47;;;9.70;99.90;;;;;;4953662;28;20474;-75
2024/02/28 11:15:55;;;;;;;24.03;12.33;;;10.00;99.90;;;;;;4960712;28;20499;-73
2024/02/28 11:18:21;;;;;;;24.67;11.57;;;10.40;99.90;;;;;;4950765;28;20569;-75
2024/02/28 11:20:48;;;;;;;26.90;12.87;;;10.40;99.90;;;;;;4953483;28;20542;-72
2024/02/28 11:23:14;;;;;;;23.97;11.80;;;10.60;99.90;;;;;;4956737;28;20236;-75
2024/02/28 11:25:43;;;;;;;25.80;13.57;;;10.50;99.90;;;;;;4955305;28;20470;-76
2024/02/28 11:28:09;;;;;;;21.80;11.63;;;10.40;99.90;;;;;;4959505;28;20587;-75
2024/02/28 11:30:35;;;;;;;25.00;12.00;;;10.60;99.90;;;;;;4951893;28;21138;-76
2024/02/28 11:33:02;;;;;;;20.23;12.17;;;10.70;99.90;;;;;;4954601;28;20470;-75
2024/02/28 11:35:28;;;;;;;22.30;11.00;;;10.70;99.90;;;;;;4953978;28;20469;-74
2024/02/28 11:37:57;;;;;;;20.63;10.90;;;10.60;99.90;;;;;;4961154;28;20532;-75
2024/02/28 11:40:26;;;;;;;24.30;12.53;;;10.50;99.90;;;;;;4953878;28;20342;-74
2024/02/28 11:42:55;;;;;;;26.77;12.57;;;10.40;99.90;;;;;;4956651;28;20496;-75
2024/02/28 11:45:21;;;;;;;25.50;11.83;;;10.70;99.90;;;;;;4955377;28;20454;-75
2024/02/28 11:47:47;;;;;;;29.43;13.60;;;11.00;99.90;;;;;;4955417;28;20466;-75
2024/02/28 11:50:14;;;;;;;18.77;11.90;;;11.30;99.90;;;;;;4956883;28;20474;-75
2024/02/28 11:52:40;;;;;;;24.93;12.70;;;11.50;99.90;;;;;;4972458;28;20995;-75
2024/02/28 11:55:06;;;;;;;20.67;11.77;;;11.60;99.90;;;;;;4958927;28;20462;-75
2024/02/28 11:57:33;;;;;;;22.77;12.40;;;11.80;99.90;;;;;;4963858;28;20461;-73
2024/02/28 12:00:15;;;;;;;23.27;12.07;;;11.70;99.90;;;;;;4958358;28;20551;-76
2024/02/28 12:02:40;;;;;;;22.03;12.03;;;11.40;99.90;;;;;;4955836;28;20457;-75
2024/02/28 12:05:06;;;;;;;19.30;11.53;;;11.20;99.90;;;;;;4970708;28;20465;-76
2024/02/28 12:07:32;;;;;;;20.80;11.70;;;11.20;99.90;;;;;;4938520;28;20222;-76
2024/02/28 12:09:59;;;;;;;22.37;12.03;;;11.30;99.90;;;;;;4953657;28;20458;-75
2024/02/28 12:12:26;;;;;;;19.90;10.50;;;11.50;99.90;;;;;;4954663;28;20696;-75
2024/02/28 12:14:52;;;;;;;23.57;10.60;;;11.70;99.90;;;;;;4953425;28;20473;-74
2024/02/28 12:17:18;;;;;;;19.77;10.80;;;11.90;99.90;;;;;;4951151;28;20470;-76
2024/02/28 12:19:44;;;;;;;20.60;10.80;;;12.00;99.90;;;;;;4953110;28;20230;-76
2024/02/28 12:22:10;;;;;;;17.27;9.40;;;12.10;99.90;;;;;;4955876;28;20476;-75
2024/02/28 12:24:36;;;;;;;13.60;8.33;;;12.30;99.90;;;;;;4956263;28;20226;-75
2024/02/28 12:27:02;;;;;;;17.10;9.83;;;12.30;99.90;;;;;;4956668;28;20671;-75
2024/02/28 12:29:27;;;;;;;18.70;10.33;;;12.30;99.90;;;;;;4955092;28;20272;-76
2024/02/28 12:31:53;;;;;;;16.97;9.83;;;12.40;99.90;;;;;;4956124;28;20756;-74